sensor_id;sensor_type;location;lat;lon;timestamp;P1;durP1;ratioP1;P2;durP2;ratioP2
4704;SDS011;2366;51.332;6.610;2023-08-06T00:01:46;4.07;;;3.67;;
4704;SDS011;2366;51.332;6.610;2023-08-06T00:04:12;5.67;;;4.50;;
4704;SDS011;2366;51.332;6.610;2023-08-06T00:06:37;5.63;;;4.40;;
4704;SDS011;2366;51.332;6.610;2023-08-06T00:09:02;5.10;;;3.80;;
4704;SDS011;2366;51.332;6.610;2023-08-06T00:11:28;4.50;;;3.90;;
4704;SDS011;2366;51.332;6.610;2023-08-06T00:13:53;7.13;;;3.50;;
4704;SDS011;2366;51.332;6.610;2023-08-06T00:16:18;6.90;;;4.53;;
4704;SDS011;2366;51.332;6.610;2023-08-06T00:18:44;11.87;;;4.93;;
4704;SDS011;2366;51.332;6.610;2023-08-06T00:21:09;3.60;;;3.10;;
4704;SDS011;2366;51.332;6.610;2023-08-06T00:23:37;4.20;;;3.88;;
4704;SDS011;2366;51.332;6.610;2023-08-06T00:26:02;4.40;;;4.00;;
4704;SDS011;2366;51.332;6.610;2023-08-06T00:28:27;5.10;;;3.47;;
4704;SDS011;2366;51.332;6.610;2023-08-06T00:30:53;4.57;;;3.80;;
4704;SDS011;2366;51.332;6.610;2023-08-06T00:33:22;7.85;;;3.63;;
4704;SDS011;2366;51.332;6.610;2023-08-06T00:35:48;5.22;;;3.78;;
4704;SDS011;2366;51.332;6.610;2023-08-06T00:38:13;11.23;;;3.63;;
4704;SDS011;2366;51.332;6.610;2023-08-06T00:40:39;4.90;;;3.40;;
4704;SDS011;2366;51.332;6.610;2023-08-06T00:43:04;6.10;;;4.27;;
4704;SDS011;2366;51.332;6.610;2023-08-06T00:45:30;5.63;;;4.10;;
4704;SDS011;2366;51.332;6.610;2023-08-06T00:47:56;4.20;;;3.40;;
4704;SDS011;2366;51.332;6.610;2023-08-06T00:50:21;3.40;;;3.10;;
4704;SDS011;2366;51.332;6.610;2023-08-06T00:52:48;6.72;;;3.30;;
4704;SDS011;2366;51.332;6.610;2023-08-06T00:55:14;4.97;;;3.35;;
4704;SDS011;2366;51.332;6.610;2023-08-06T00:57:40;4.32;;;3.13;;
4704;SDS011;2366;51.332;6.610;2023-08-06T01:00:06;3.50;;;3.20;;
4704;SDS011;2366;51.332;6.610;2023-08-06T01:02:32;5.43;;;3.53;;
4704;SDS011;2366;51.332;6.610;2023-08-06T01:04:58;3.53;;;3.23;;
4704;SDS011;2366;51.332;6.610;2023-08-06T01:16:16;5.35;;;2.80;;
4704;SDS011;2366;51.332;6.610;2023-08-06T01:18:44;4.22;;;3.30;;
4704;SDS011;2366;51.332;6.610;2023-08-06T01:21:14;5.03;;;3.03;;
4704;SDS011;2366;51.332;6.610;2023-08-06T01:23:41;3.30;;;3.00;;
4704;SDS011;2366;51.332;6.610;2023-08-06T01:29:31;3.35;;;3.05;;
4704;SDS011;2366;51.332;6.610;2023-08-06T01:32:10;7.35;;;3.53;;
4704;SDS011;2366;51.332;6.610;2023-08-06T01:34:37;7.35;;;3.10;;
4704;SDS011;2366;51.332;6.610;2023-08-06T01:37:05;9.55;;;3.70;;
4704;SDS011;2366;51.332;6.610;2023-08-06T01:39:33;3.55;;;2.83;;
4704;SDS011;2366;51.332;6.610;2023-08-06T01:41:58;2.83;;;2.47;;
4704;SDS011;2366;51.332;6.610;2023-08-06T01:44:24;3.73;;;3.30;;
4704;SDS011;2366;51.332;6.610;2023-08-06T01:46:49;4.03;;;3.37;;
4704;SDS011;2366;51.332;6.610;2023-08-06T01:49:14;3.50;;;3.20;;
4704;SDS011;2366;51.332;6.610;2023-08-06T01:51:40;6.27;;;2.97;;
4704;SDS011;2366;51.332;6.610;2023-08-06T01:54:05;2.93;;;2.57;;
4704;SDS011;2366;51.332;6.610;2023-08-06T01:56:30;3.17;;;2.87;;
4704;SDS011;2366;51.332;6.610;2023-08-06T01:58:56;4.67;;;2.73;;
4704;SDS011;2366;51.332;6.610;2023-08-06T02:01:27;3.60;;;2.50;;
4704;SDS011;2366;51.332;6.610;2023-08-06T02:03:52;2.30;;;2.13;;
4704;SDS011;2366;51.332;6.610;2023-08-06T02:06:18;5.50;;;2.43;;
4704;SDS011;2366;51.332;6.610;2023-08-06T02:08:43;8.00;;;2.67;;
4704;SDS011;2366;51.332;6.610;2023-08-06T02:11:08;3.03;;;2.80;;
4704;SDS011;2366;51.332;6.610;2023-08-06T02:13:34;3.90;;;3.23;;
4704;SDS011;2366;51.332;6.610;2023-08-06T02:16:01;7.50;;;2.97;;
4704;SDS011;2366;51.332;6.610;2023-08-06T02:18:26;3.78;;;3.33;;
4704;SDS011;2366;51.332;6.610;2023-08-06T02:20:58;4.93;;;3.23;;
4704;SDS011;2366;51.332;6.610;2023-08-06T02:23:24;4.22;;;3.20;;
4704;SDS011;2366;51.332;6.610;2023-08-06T02:25:59;5.10;;;2.47;;
4704;SDS011;2366;51.332;6.610;2023-08-06T02:28:26;5.15;;;2.78;;
4704;SDS011;2366;51.332;6.610;2023-08-06T02:30:51;3.50;;;2.10;;
4704;SDS011;2366;51.332;6.610;2023-08-06T02:33:17;5.27;;;3.13;;
4704;SDS011;2366;51.332;6.610;2023-08-06T02:35:42;3.40;;;2.73;;
4704;SDS011;2366;51.332;6.610;2023-08-06T02:38:08;5.80;;;2.87;;
4704;SDS011;2366;51.332;6.610;2023-08-06T02:40:33;14.27;;;3.80;;
4704;SDS011;2366;51.332;6.610;2023-08-06T02:42:58;2.83;;;2.47;;
4704;SDS011;2366;51.332;6.610;2023-08-06T02:45:24;4.57;;;3.30;;
4704;SDS011;2366;51.332;6.610;2023-08-06T02:47:49;2.07;;;1.97;;
4704;SDS011;2366;51.332;6.610;2023-08-06T02:50:14;4.90;;;2.70;;
4704;SDS011;2366;51.332;6.610;2023-08-06T02:52:40;3.50;;;3.10;;
4704;SDS011;2366;51.332;6.610;2023-08-06T02:55:06;3.80;;;2.40;;
4704;SDS011;2366;51.332;6.610;2023-08-06T02:57:31;3.55;;;2.85;;
4704;SDS011;2366;51.332;6.610;2023-08-06T02:59:57;4.37;;;3.17;;
4704;SDS011;2366;51.332;6.610;2023-08-06T03:02:22;5.37;;;3.00;;
4704;SDS011;2366;51.332;6.610;2023-08-06T03:04:47;3.77;;;2.60;;
4704;SDS011;2366;51.332;6.610;2023-08-06T03:07:13;5.73;;;3.33;;
4704;SDS011;2366;51.332;6.610;2023-08-06T03:09:38;3.63;;;3.30;;
4704;SDS011;2366;51.332;6.610;2023-08-06T03:12:04;3.73;;;3.27;;
4704;SDS011;2366;51.332;6.610;2023-08-06T03:14:29;4.13;;;2.30;;
4704;SDS011;2366;51.332;6.610;2023-08-06T03:16:55;2.83;;;2.50;;
4704;SDS011;2366;51.332;6.610;2023-08-06T03:19:20;5.33;;;2.60;;
4704;SDS011;2366;51.332;6.610;2023-08-06T03:21:45;4.30;;;3.20;;
4704;SDS011;2366;51.332;6.610;2023-08-06T03:24:11;6.30;;;2.20;;
4704;SDS011;2366;51.332;6.610;2023-08-06T03:26:38;2.60;;;2.40;;
4704;SDS011;2366;51.332;6.610;2023-08-06T03:29:03;4.90;;;2.77;;
4704;SDS011;2366;51.332;6.610;2023-08-06T03:31:29;2.67;;;2.47;;
4704;SDS011;2366;51.332;6.610;2023-08-06T03:33:54;6.67;;;2.40;;
4704;SDS011;2366;51.332;6.610;2023-08-06T03:36:19;8.00;;;2.70;;
4704;SDS011;2366;51.332;6.610;2023-08-06T03:38:45;2.43;;;2.13;;
4704;SDS011;2366;51.332;6.610;2023-08-06T03:41:10;2.67;;;2.47;;
4704;SDS011;2366;51.332;6.610;2023-08-06T03:43:36;5.83;;;2.87;;
4704;SDS011;2366;51.332;6.610;2023-08-06T03:46:01;2.97;;;2.60;;
4704;SDS011;2366;51.332;6.610;2023-08-06T03:48:26;2.93;;;2.60;;
4704;SDS011;2366;51.332;6.610;2023-08-06T03:50:52;3.57;;;3.10;;
4704;SDS011;2366;51.332;6.610;2023-08-06T03:53:17;6.73;;;2.67;;
4704;SDS011;2366;51.332;6.610;2023-08-06T03:55:42;3.07;;;2.17;;
4704;SDS011;2366;51.332;6.610;2023-08-06T03:58:08;2.10;;;1.83;;
4704;SDS011;2366;51.332;6.610;2023-08-06T04:00:33;5.70;;;3.30;;
4704;SDS011;2366;51.332;6.610;2023-08-06T04:02:59;3.43;;;2.20;;
4704;SDS011;2366;51.332;6.610;2023-08-06T04:05:24;4.53;;;3.27;;
4704;SDS011;2366;51.332;6.610;2023-08-06T04:07:49;6.23;;;3.60;;
4704;SDS011;2366;51.332;6.610;2023-08-06T04:10:15;9.33;;;3.73;;
4704;SDS011;2366;51.332;6.610;2023-08-06T04:12:40;11.13;;;4.00;;
4704;SDS011;2366;51.332;6.610;2023-08-06T04:15:06;3.60;;;3.30;;
4704;SDS011;2366;51.332;6.610;2023-08-06T04:17:32;4.00;;;3.47;;
4704;SDS011;2366;51.332;6.610;2023-08-06T04:19:57;8.70;;;3.50;;
4704;SDS011;2366;51.332;6.610;2023-08-06T04:22:24;4.32;;;3.45;;
4704;SDS011;2366;51.332;6.610;2023-08-06T04:24:49;6.73;;;3.97;;
4704;SDS011;2366;51.332;6.610;2023-08-06T04:27:15;5.47;;;3.47;;
4704;SDS011;2366;51.332;6.610;2023-08-06T04:29:42;4.32;;;3.10;;
4704;SDS011;2366;51.332;6.610;2023-08-06T04:32:08;6.03;;;2.80;;
4704;SDS011;2366;51.332;6.610;2023-08-06T04:34:35;11.98;;;2.55;;
4704;SDS011;2366;51.332;6.610;2023-08-06T04:37:01;4.45;;;3.00;;
4704;SDS011;2366;51.332;6.610;2023-08-06T04:39:27;3.60;;;3.30;;
4704;SDS011;2366;51.332;6.610;2023-08-06T04:41:52;4.90;;;3.50;;
4704;SDS011;2366;51.332;6.610;2023-08-06T04:44:18;4.60;;;2.70;;
4704;SDS011;2366;51.332;6.610;2023-08-06T04:46:44;5.57;;;4.33;;
4704;SDS011;2366;51.332;6.610;2023-08-06T04:49:09;4.50;;;3.37;;
4704;SDS011;2366;51.332;6.610;2023-08-06T04:51:35;3.80;;;2.90;;
4704;SDS011;2366;51.332;6.610;2023-08-06T04:54:00;4.23;;;3.30;;
4704;SDS011;2366;51.332;6.610;2023-08-06T04:56:25;5.90;;;2.30;;
4704;SDS011;2366;51.332;6.610;2023-08-06T04:58:51;4.50;;;3.10;;
4704;SDS011;2366;51.332;6.610;2023-08-06T05:01:16;3.53;;;2.50;;
4704;SDS011;2366;51.332;6.610;2023-08-06T05:03:42;4.70;;;3.43;;
4704;SDS011;2366;51.332;6.610;2023-08-06T05:06:07;3.60;;;3.40;;
4704;SDS011;2366;51.332;6.610;2023-08-06T05:08:33;3.47;;;3.20;;
4704;SDS011;2366;51.332;6.610;2023-08-06T05:10:58;9.33;;;3.17;;
4704;SDS011;2366;51.332;6.610;2023-08-06T05:13:23;5.10;;;2.90;;
4704;SDS011;2366;51.332;6.610;2023-08-06T05:15:50;3.00;;;2.63;;
4704;SDS011;2366;51.332;6.610;2023-08-06T05:18:15;2.97;;;2.67;;
4704;SDS011;2366;51.332;6.610;2023-08-06T05:20:41;6.67;;;3.60;;
4704;SDS011;2366;51.332;6.610;2023-08-06T05:23:07;5.72;;;3.10;;
4704;SDS011;2366;51.332;6.610;2023-08-06T05:25:36;3.47;;;3.27;;
4704;SDS011;2366;51.332;6.610;2023-08-06T05:28:04;4.07;;;3.17;;
4704;SDS011;2366;51.332;6.610;2023-08-06T05:30:30;4.00;;;2.57;;
4704;SDS011;2366;51.332;6.610;2023-08-06T05:32:56;5.33;;;3.20;;
4704;SDS011;2366;51.332;6.610;2023-08-06T05:35:21;4.47;;;2.67;;
4704;SDS011;2366;51.332;6.610;2023-08-06T05:37:47;2.73;;;2.53;;
4704;SDS011;2366;51.332;6.610;2023-08-06T05:40:13;2.97;;;2.67;;
4704;SDS011;2366;51.332;6.610;2023-08-06T05:42:39;3.25;;;1.92;;
4704;SDS011;2366;51.332;6.610;2023-08-06T05:45:05;3.42;;;2.72;;
4704;SDS011;2366;51.332;6.610;2023-08-06T05:47:31;9.57;;;2.53;;
4704;SDS011;2366;51.332;6.610;2023-08-06T05:49:56;2.40;;;2.20;;
4704;SDS011;2366;51.332;6.610;2023-08-06T05:52:22;1.60;;;1.50;;
4704;SDS011;2366;51.332;6.610;2023-08-06T05:54:47;1.70;;;1.20;;
4704;SDS011;2366;51.332;6.610;2023-08-06T05:57:12;4.87;;;1.23;;
4704;SDS011;2366;51.332;6.610;2023-08-06T05:59:38;5.50;;;1.40;;
4704;SDS011;2366;51.332;6.610;2023-08-06T06:02:03;2.13;;;1.30;;
4704;SDS011;2366;51.332;6.610;2023-08-06T06:04:29;1.80;;;1.00;;
4704;SDS011;2366;51.332;6.610;2023-08-06T06:06:54;1.73;;;1.20;;
4704;SDS011;2366;51.332;6.610;2023-08-06T06:09:19;1.13;;;0.90;;
4704;SDS011;2366;51.332;6.610;2023-08-06T06:11:45;1.40;;;1.00;;
4704;SDS011;2366;51.332;6.610;2023-08-06T06:14:10;1.17;;;1.03;;
4704;SDS011;2366;51.332;6.610;2023-08-06T06:16:35;1.37;;;1.20;;
4704;SDS011;2366;51.332;6.610;2023-08-06T06:19:01;1.30;;;1.00;;
4704;SDS011;2366;51.332;6.610;2023-08-06T06:21:26;1.97;;;1.10;;
4704;SDS011;2366;51.332;6.610;2023-08-06T06:23:51;0.83;;;0.70;;
4704;SDS011;2366;51.332;6.610;2023-08-06T06:26:18;3.70;;;1.27;;
4704;SDS011;2366;51.332;6.610;2023-08-06T06:28:43;2.10;;;1.30;;
4704;SDS011;2366;51.332;6.610;2023-08-06T06:31:09;6.20;;;0.87;;
4704;SDS011;2366;51.332;6.610;2023-08-06T06:33:34;5.20;;;1.30;;
4704;SDS011;2366;51.332;6.610;2023-08-06T06:35:59;1.73;;;1.20;;
4704;SDS011;2366;51.332;6.610;2023-08-06T06:38:25;1.57;;;0.93;;
4704;SDS011;2366;51.332;6.610;2023-08-06T06:40:59;2.40;;;0.87;;
4704;SDS011;2366;51.332;6.610;2023-08-06T06:43:25;2.40;;;1.50;;
4704;SDS011;2366;51.332;6.610;2023-08-06T06:45:55;1.90;;;1.43;;
4704;SDS011;2366;51.332;6.610;2023-08-06T06:48:22;2.40;;;0.90;;
4704;SDS011;2366;51.332;6.610;2023-08-06T06:50:48;3.43;;;1.20;;
4704;SDS011;2366;51.332;6.610;2023-08-06T06:53:13;2.40;;;1.60;;
4704;SDS011;2366;51.332;6.610;2023-08-06T06:55:39;1.40;;;1.30;;
4704;SDS011;2366;51.332;6.610;2023-08-06T06:58:04;12.73;;;1.13;;
4704;SDS011;2366;51.332;6.610;2023-08-06T07:00:30;1.50;;;1.03;;
4704;SDS011;2366;51.332;6.610;2023-08-06T07:02:55;1.00;;;0.83;;
4704;SDS011;2366;51.332;6.610;2023-08-06T07:05:20;1.30;;;0.67;;
4704;SDS011;2366;51.332;6.610;2023-08-06T07:07:46;1.00;;;0.87;;
4704;SDS011;2366;51.332;6.610;2023-08-06T07:10:11;4.47;;;1.43;;
4704;SDS011;2366;51.332;6.610;2023-08-06T07:12:36;1.23;;;0.93;;
4704;SDS011;2366;51.332;6.610;2023-08-06T07:15:04;1.10;;;0.93;;
4704;SDS011;2366;51.332;6.610;2023-08-06T07:17:31;1.73;;;1.13;;
4704;SDS011;2366;51.332;6.610;2023-08-06T07:19:56;1.20;;;1.10;;
4704;SDS011;2366;51.332;6.610;2023-08-06T07:22:21;1.10;;;1.10;;
4704;SDS011;2366;51.332;6.610;2023-08-06T07:24:47;2.40;;;1.80;;
4704;SDS011;2366;51.332;6.610;2023-08-06T07:27:12;1.20;;;1.10;;
4704;SDS011;2366;51.332;6.610;2023-08-06T07:29:37;1.70;;;1.50;;
4704;SDS011;2366;51.332;6.610;2023-08-06T07:32:03;1.67;;;1.30;;
4704;SDS011;2366;51.332;6.610;2023-08-06T07:34:28;1.20;;;1.10;;
4704;SDS011;2366;51.332;6.610;2023-08-06T07:36:54;1.03;;;0.93;;
4704;SDS011;2366;51.332;6.610;2023-08-06T07:39:19;1.00;;;1.00;;
4704;SDS011;2366;51.332;6.610;2023-08-06T07:41:44;1.37;;;1.27;;
4704;SDS011;2366;51.332;6.610;2023-08-06T07:44:11;2.00;;;1.60;;
4704;SDS011;2366;51.332;6.610;2023-08-06T07:46:36;5.40;;;2.10;;
4704;SDS011;2366;51.332;6.610;2023-08-06T07:49:02;2.00;;;1.43;;
4704;SDS011;2366;51.332;6.610;2023-08-06T07:51:27;1.77;;;1.60;;
4704;SDS011;2366;51.332;6.610;2023-08-06T07:53:53;2.20;;;1.17;;
4704;SDS011;2366;51.332;6.610;2023-08-06T07:56:18;1.40;;;1.30;;
4704;SDS011;2366;51.332;6.610;2023-08-06T07:58:43;1.93;;;1.57;;
4704;SDS011;2366;51.332;6.610;2023-08-06T08:01:09;1.20;;;1.10;;
4704;SDS011;2366;51.332;6.610;2023-08-06T08:03:34;4.30;;;1.67;;
4704;SDS011;2366;51.332;6.610;2023-08-06T08:06:00;1.30;;;1.20;;
4704;SDS011;2366;51.332;6.610;2023-08-06T08:08:25;3.33;;;1.20;;
4704;SDS011;2366;51.332;6.610;2023-08-06T08:10:50;1.73;;;1.63;;
4704;SDS011;2366;51.332;6.610;2023-08-06T08:13:16;0.90;;;0.90;;
4704;SDS011;2366;51.332;6.610;2023-08-06T08:15:41;3.00;;;1.13;;
4704;SDS011;2366;51.332;6.610;2023-08-06T08:18:07;3.03;;;1.30;;
4704;SDS011;2366;51.332;6.610;2023-08-06T08:20:33;1.70;;;1.30;;
4704;SDS011;2366;51.332;6.610;2023-08-06T08:23:00;1.10;;;1.00;;
4704;SDS011;2366;51.332;6.610;2023-08-06T08:25:26;1.37;;;1.10;;
4704;SDS011;2366;51.332;6.610;2023-08-06T08:27:52;2.93;;;1.50;;
4704;SDS011;2366;51.332;6.610;2023-08-06T08:30:19;7.83;;;1.50;;
4704;SDS011;2366;51.332;6.610;2023-08-06T08:32:44;1.63;;;1.20;;
4704;SDS011;2366;51.332;6.610;2023-08-06T08:35:10;1.40;;;1.27;;
4704;SDS011;2366;51.332;6.610;2023-08-06T08:37:37;1.30;;;1.20;;
4704;SDS011;2366;51.332;6.610;2023-08-06T08:40:03;2.10;;;1.33;;
4704;SDS011;2366;51.332;6.610;2023-08-06T08:42:30;1.77;;;1.63;;
4704;SDS011;2366;51.332;6.610;2023-08-06T08:44:55;2.17;;;1.80;;
4704;SDS011;2366;51.332;6.610;2023-08-06T08:47:22;2.73;;;1.87;;
4704;SDS011;2366;51.332;6.610;2023-08-06T08:49:49;8.17;;;1.77;;
4704;SDS011;2366;51.332;6.610;2023-08-06T08:52:19;2.13;;;0.90;;
4704;SDS011;2366;51.332;6.610;2023-08-06T08:54:46;5.33;;;1.67;;
4704;SDS011;2366;51.332;6.610;2023-08-06T08:57:16;4.00;;;1.07;;
4704;SDS011;2366;51.332;6.610;2023-08-06T08:59:42;1.33;;;1.23;;
4704;SDS011;2366;51.332;6.610;2023-08-06T09:02:07;1.07;;;0.97;;
4704;SDS011;2366;51.332;6.610;2023-08-06T09:04:36;0.73;;;0.70;;
4704;SDS011;2366;51.332;6.610;2023-08-06T09:07:02;1.23;;;0.97;;
4704;SDS011;2366;51.332;6.610;2023-08-06T09:09:33;1.30;;;1.20;;
4704;SDS011;2366;51.332;6.610;2023-08-06T09:12:14;1.50;;;1.20;;
4704;SDS011;2366;51.332;6.610;2023-08-06T09:14:41;1.90;;;1.73;;
4704;SDS011;2366;51.332;6.610;2023-08-06T09:17:06;5.53;;;1.60;;
4704;SDS011;2366;51.332;6.610;2023-08-06T09:19:32;1.57;;;1.43;;
4704;SDS011;2366;51.332;6.610;2023-08-06T09:21:58;2.60;;;1.23;;
4704;SDS011;2366;51.332;6.610;2023-08-06T09:24:23;2.40;;;1.43;;
4704;SDS011;2366;51.332;6.610;2023-08-06T09:26:49;2.40;;;2.20;;
4704;SDS011;2366;51.332;6.610;2023-08-06T09:29:14;2.53;;;2.33;;
4704;SDS011;2366;51.332;6.610;2023-08-06T09:31:44;2.17;;;1.50;;
4704;SDS011;2366;51.332;6.610;2023-08-06T09:34:11;7.43;;;2.77;;
4704;SDS011;2366;51.332;6.610;2023-08-06T09:36:41;5.30;;;2.63;;
4704;SDS011;2366;51.332;6.610;2023-08-06T09:39:12;5.07;;;3.43;;
4704;SDS011;2366;51.332;6.610;2023-08-06T09:41:42;4.30;;;3.90;;
4704;SDS011;2366;51.332;6.610;2023-08-06T09:44:26;8.87;;;3.57;;
4704;SDS011;2366;51.332;6.610;2023-08-06T09:46:53;4.80;;;3.13;;
4704;SDS011;2366;51.332;6.610;2023-08-06T09:49:23;6.43;;;3.50;;
4704;SDS011;2366;51.332;6.610;2023-08-06T09:51:52;6.63;;;2.83;;
4704;SDS011;2366;51.332;6.610;2023-08-06T09:54:20;3.57;;;2.67;;
4704;SDS011;2366;51.332;6.610;2023-08-06T09:56:48;7.07;;;2.27;;
4704;SDS011;2366;51.332;6.610;2023-08-06T09:59:13;3.10;;;2.73;;
4704;SDS011;2366;51.332;6.610;2023-08-06T10:01:41;3.40;;;2.03;;
4704;SDS011;2366;51.332;6.610;2023-08-06T10:04:06;5.63;;;2.30;;
4704;SDS011;2366;51.332;6.610;2023-08-06T10:06:37;2.10;;;1.90;;
4704;SDS011;2366;51.332;6.610;2023-08-06T10:09:05;1.63;;;1.53;;
4704;SDS011;2366;51.332;6.610;2023-08-06T10:11:31;2.03;;;1.23;;
4704;SDS011;2366;51.332;6.610;2023-08-06T10:14:19;1.50;;;1.30;;
4704;SDS011;2366;51.332;6.610;2023-08-06T10:16:51;1.10;;;1.00;;
4704;SDS011;2366;51.332;6.610;2023-08-06T10:19:16;3.73;;;1.30;;
4704;SDS011;2366;51.332;6.610;2023-08-06T10:27:22;1.00;;;0.90;;
4704;SDS011;2366;51.332;6.610;2023-08-06T10:32:56;0.67;;;0.67;;
4704;SDS011;2366;51.332;6.610;2023-08-06T10:38:21;1.10;;;0.80;;
4704;SDS011;2366;51.332;6.610;2023-08-06T10:43:34;1.55;;;0.90;;
4704;SDS011;2366;51.332;6.610;2023-08-06T10:46:03;2.47;;;1.10;;
4704;SDS011;2366;51.332;6.610;2023-08-06T10:48:35;1.20;;;1.10;;
4704;SDS011;2366;51.332;6.610;2023-08-06T10:51:01;1.30;;;1.20;;
4704;SDS011;2366;51.332;6.610;2023-08-06T10:53:27;1.35;;;1.10;;
4704;SDS011;2366;51.332;6.610;2023-08-06T10:55:52;1.40;;;1.30;;
4704;SDS011;2366;51.332;6.610;2023-08-06T10:58:18;1.90;;;1.80;;
4704;SDS011;2366;51.332;6.610;2023-08-06T11:00:43;1.50;;;1.40;;
4704;SDS011;2366;51.332;6.610;2023-08-06T11:03:09;1.47;;;1.37;;
4704;SDS011;2366;51.332;6.610;2023-08-06T11:05:35;2.27;;;2.07;;
4704;SDS011;2366;51.332;6.610;2023-08-06T11:08:01;2.08;;;1.92;;
4704;SDS011;2366;51.332;6.610;2023-08-06T11:10:26;2.70;;;2.50;;
4704;SDS011;2366;51.332;6.610;2023-08-06T11:12:52;5.53;;;2.40;;
4704;SDS011;2366;51.332;6.610;2023-08-06T11:15:19;2.57;;;2.37;;
4704;SDS011;2366;51.332;6.610;2023-08-06T11:17:45;2.60;;;2.40;;
4704;SDS011;2366;51.332;6.610;2023-08-06T11:20:11;2.63;;;2.43;;
4704;SDS011;2366;51.332;6.610;2023-08-06T11:22:37;3.37;;;2.97;;
4704;SDS011;2366;51.332;6.610;2023-08-06T11:25:03;3.03;;;2.20;;
4704;SDS011;2366;51.332;6.610;2023-08-06T11:27:29;3.72;;;2.47;;
4704;SDS011;2366;51.332;6.610;2023-08-06T11:29:54;2.13;;;1.90;;
4704;SDS011;2366;51.332;6.610;2023-08-06T11:32:20;3.53;;;2.00;;
4704;SDS011;2366;51.332;6.610;2023-08-06T11:34:45;1.83;;;1.73;;
4704;SDS011;2366;51.332;6.610;2023-08-06T11:37:11;1.60;;;1.50;;
4704;SDS011;2366;51.332;6.610;2023-08-06T11:39:37;2.60;;;2.00;;
4704;SDS011;2366;51.332;6.610;2023-08-06T11:42:03;1.98;;;1.88;;
4704;SDS011;2366;51.332;6.610;2023-08-06T11:44:36;2.10;;;1.90;;
4704;SDS011;2366;51.332;6.610;2023-08-06T11:47:03;1.80;;;1.70;;
4704;SDS011;2366;51.332;6.610;2023-08-06T11:49:47;1.88;;;1.67;;
4704;SDS011;2366;51.332;6.610;2023-08-06T11:52:14;1.70;;;1.45;;
4704;SDS011;2366;51.332;6.610;2023-08-06T11:54:59;3.83;;;1.60;;
4704;SDS011;2366;51.332;6.610;2023-08-06T11:57:25;2.35;;;1.65;;
4704;SDS011;2366;51.332;6.610;2023-08-06T11:59:50;2.00;;;1.90;;
4704;SDS011;2366;51.332;6.610;2023-08-06T12:02:16;2.73;;;1.90;;
4704;SDS011;2366;51.332;6.610;2023-08-06T12:05:01;1.90;;;1.23;;
4704;SDS011;2366;51.332;6.610;2023-08-06T12:07:29;2.97;;;1.48;;
4704;SDS011;2366;51.332;6.610;2023-08-06T12:09:56;1.98;;;1.67;;
4704;SDS011;2366;51.332;6.610;2023-08-06T12:12:22;2.05;;;1.73;;
4704;SDS011;2366;51.332;6.610;2023-08-06T12:14:48;1.80;;;1.70;;
4704;SDS011;2366;51.332;6.610;2023-08-06T12:17:13;1.67;;;1.50;;
4704;SDS011;2366;51.332;6.610;2023-08-06T12:19:39;1.77;;;1.40;;
4704;SDS011;2366;51.332;6.610;2023-08-06T12:22:04;2.30;;;1.43;;
4704;SDS011;2366;51.332;6.610;2023-08-06T12:24:30;1.30;;;1.20;;
4704;SDS011;2366;51.332;6.610;2023-08-06T12:26:57;1.60;;;1.45;;
4704;SDS011;2366;51.332;6.610;2023-08-06T12:29:23;3.67;;;1.98;;
4704;SDS011;2366;51.332;6.610;2023-08-06T12:31:48;1.67;;;1.57;;
4704;SDS011;2366;51.332;6.610;2023-08-06T12:34:14;2.13;;;1.53;;
4704;SDS011;2366;51.332;6.610;2023-08-06T12:36:40;4.40;;;3.10;;
4704;SDS011;2366;51.332;6.610;2023-08-06T12:39:05;3.63;;;2.90;;
4704;SDS011;2366;51.332;6.610;2023-08-06T12:41:30;3.40;;;2.27;;
4704;SDS011;2366;51.332;6.610;2023-08-06T12:43:56;4.47;;;2.70;;
4704;SDS011;2366;51.332;6.610;2023-08-06T12:46:21;2.70;;;2.50;;
4704;SDS011;2366;51.332;6.610;2023-08-06T12:48:46;4.33;;;2.80;;
4704;SDS011;2366;51.332;6.610;2023-08-06T12:51:13;2.78;;;2.28;;
4704;SDS011;2366;51.332;6.610;2023-08-06T12:53:39;4.23;;;2.77;;
4704;SDS011;2366;51.332;6.610;2023-08-06T12:56:04;3.60;;;2.57;;
4704;SDS011;2366;51.332;6.610;2023-08-06T12:58:30;4.90;;;2.40;;
4704;SDS011;2366;51.332;6.610;2023-08-06T13:00:55;5.80;;;2.57;;
4704;SDS011;2366;51.332;6.610;2023-08-06T13:03:21;2.53;;;2.33;;
4704;SDS011;2366;51.332;6.610;2023-08-06T13:05:47;2.90;;;2.60;;
4704;SDS011;2366;51.332;6.610;2023-08-06T13:08:12;2.40;;;2.03;;
4704;SDS011;2366;51.332;6.610;2023-08-06T13:10:37;4.00;;;2.77;;
4704;SDS011;2366;51.332;6.610;2023-08-06T13:13:03;2.17;;;1.97;;
4704;SDS011;2366;51.332;6.610;2023-08-06T13:15:28;3.90;;;2.20;;
4704;SDS011;2366;51.332;6.610;2023-08-06T13:17:54;3.83;;;2.43;;
4704;SDS011;2366;51.332;6.610;2023-08-06T13:20:19;10.47;;;2.60;;
4704;SDS011;2366;51.332;6.610;2023-08-06T13:22:45;2.83;;;2.63;;
4704;SDS011;2366;51.332;6.610;2023-08-06T13:25:11;7.20;;;2.17;;
4704;SDS011;2366;51.332;6.610;2023-08-06T13:27:39;4.25;;;2.05;;
4704;SDS011;2366;51.332;6.610;2023-08-06T13:30:04;4.17;;;2.97;;
4704;SDS011;2366;51.332;6.610;2023-08-06T13:32:30;4.10;;;1.73;;
4704;SDS011;2366;51.332;6.610;2023-08-06T13:34:57;2.03;;;1.83;;
4704;SDS011;2366;51.332;6.610;2023-08-06T13:37:22;2.47;;;1.77;;
4704;SDS011;2366;51.332;6.610;2023-08-06T13:39:48;8.63;;;2.83;;
4704;SDS011;2366;51.332;6.610;2023-08-06T13:42:13;8.00;;;2.17;;
4704;SDS011;2366;51.332;6.610;2023-08-06T13:44:38;3.00;;;2.03;;
4704;SDS011;2366;51.332;6.610;2023-08-06T13:47:04;5.37;;;2.20;;
4704;SDS011;2366;51.332;6.610;2023-08-06T13:49:29;2.30;;;1.67;;
4704;SDS011;2366;51.332;6.610;2023-08-06T13:51:54;2.30;;;1.90;;
4704;SDS011;2366;51.332;6.610;2023-08-06T13:54:20;3.47;;;1.93;;
4704;SDS011;2366;51.332;6.610;2023-08-06T13:56:46;1.67;;;1.30;;
4704;SDS011;2366;51.332;6.610;2023-08-06T13:59:11;2.77;;;2.00;;
4704;SDS011;2366;51.332;6.610;2023-08-06T14:01:38;3.97;;;2.07;;
4704;SDS011;2366;51.332;6.610;2023-08-06T14:04:04;2.03;;;1.60;;
4704;SDS011;2366;51.332;6.610;2023-08-06T14:06:29;3.47;;;1.87;;
4704;SDS011;2366;51.332;6.610;2023-08-06T14:08:55;2.97;;;1.70;;
4704;SDS011;2366;51.332;6.610;2023-08-06T14:11:21;4.63;;;2.20;;
4704;SDS011;2366;51.332;6.610;2023-08-06T14:13:46;2.67;;;2.20;;
4704;SDS011;2366;51.332;6.610;2023-08-06T14:16:12;5.17;;;2.07;;
4704;SDS011;2366;51.332;6.610;2023-08-06T14:18:37;3.10;;;1.60;;
4704;SDS011;2366;51.332;6.610;2023-08-06T14:21:03;4.43;;;2.27;;
4704;SDS011;2366;51.332;6.610;2023-08-06T14:23:29;3.87;;;2.30;;
4704;SDS011;2366;51.332;6.610;2023-08-06T14:25:54;3.20;;;1.63;;
4704;SDS011;2366;51.332;6.610;2023-08-06T14:28:19;2.80;;;2.20;;
4704;SDS011;2366;51.332;6.610;2023-08-06T14:30:45;2.17;;;1.90;;
4704;SDS011;2366;51.332;6.610;2023-08-06T14:33:10;8.80;;;2.00;;
4704;SDS011;2366;51.332;6.610;2023-08-06T14:35:36;3.13;;;1.73;;
4704;SDS011;2366;51.332;6.610;2023-08-06T14:38:01;3.30;;;2.53;;
4704;SDS011;2366;51.332;6.610;2023-08-06T14:40:26;2.70;;;2.00;;
4704;SDS011;2366;51.332;6.610;2023-08-06T14:42:58;2.10;;;1.90;;
4704;SDS011;2366;51.332;6.610;2023-08-06T14:45:24;2.50;;;1.70;;
4704;SDS011;2366;51.332;6.610;2023-08-06T14:47:49;2.90;;;1.97;;
4704;SDS011;2366;51.332;6.610;2023-08-06T14:50:15;2.73;;;1.57;;
4704;SDS011;2366;51.332;6.610;2023-08-06T14:52:40;1.70;;;1.57;;
4704;SDS011;2366;51.332;6.610;2023-08-06T14:55:06;2.23;;;2.03;;
4704;SDS011;2366;51.332;6.610;2023-08-06T14:57:31;1.93;;;1.40;;
4704;SDS011;2366;51.332;6.610;2023-08-06T14:59:57;2.47;;;2.27;;
4704;SDS011;2366;51.332;6.610;2023-08-06T15:02:22;2.30;;;1.47;;
4704;SDS011;2366;51.332;6.610;2023-08-06T15:04:48;4.47;;;2.33;;
4704;SDS011;2366;51.332;6.610;2023-08-06T15:07:15;2.00;;;1.70;;
4704;SDS011;2366;51.332;6.610;2023-08-06T15:09:40;2.60;;;1.70;;
4704;SDS011;2366;51.332;6.610;2023-08-06T15:12:06;2.17;;;1.97;;
4704;SDS011;2366;51.332;6.610;2023-08-06T15:14:31;3.20;;;1.57;;
4704;SDS011;2366;51.332;6.610;2023-08-06T15:16:57;2.67;;;1.77;;
4704;SDS011;2366;51.332;6.610;2023-08-06T15:19:23;1.50;;;1.37;;
4704;SDS011;2366;51.332;6.610;2023-08-06T15:21:49;1.37;;;1.27;;
4704;SDS011;2366;51.332;6.610;2023-08-06T15:24:16;1.63;;;1.40;;
4704;SDS011;2366;51.332;6.610;2023-08-06T15:26:42;2.50;;;1.40;;
4704;SDS011;2366;51.332;6.610;2023-08-06T15:29:07;1.93;;;1.60;;
4704;SDS011;2366;51.332;6.610;2023-08-06T15:31:38;2.40;;;1.63;;
4704;SDS011;2366;51.332;6.610;2023-08-06T15:34:05;3.83;;;1.57;;
4704;SDS011;2366;51.332;6.610;2023-08-06T15:36:32;1.73;;;1.63;;